sensor_id;sensor_type;location;lat;lon;timestamp;P1;durP1;ratioP1;P2;durP2;ratioP2
37997;SDS011;24079;51.824;4.682;2023-02-26T16:44:56;3.50;;;0.95;;
37997;SDS011;24079;51.824;4.682;2023-02-26T16:47:47;4.07;;;1.70;;
37997;SDS011;24079;51.824;4.682;2023-02-26T16:50:16;6.55;;;1.80;;
37997;SDS011;24079;51.824;4.682;2023-02-26T16:52:51;4.80;;;1.55;;
37997;SDS011;24079;51.824;4.682;2023-02-26T16:55:28;8.45;;;1.50;;
37997;SDS011;24079;51.824;4.682;2023-02-26T16:57:56;8.32;;;1.60;;
37997;SDS011;24079;51.824;4.682;2023-02-26T17:00:26;7.18;;;1.95;;
37997;SDS011;24079;51.824;4.682;2023-02-26T17:02:56;9.18;;;2.25;;
37997;SDS011;24079;51.824;4.682;2023-02-26T17:05:51;4.57;;;1.65;;
37997;SDS011;24079;51.824;4.682;2023-02-26T17:08:29;8.55;;;1.73;;
37997;SDS011;24079;51.824;4.682;2023-02-26T17:11:06;10.75;;;1.95;;
37997;SDS011;24079;51.824;4.682;2023-02-26T17:13:34;11.48;;;2.58;;
37997;SDS011;24079;51.824;4.682;2023-02-26T17:16:07;11.27;;;1.92;;
37997;SDS011;24079;51.824;4.682;2023-02-26T17:18:36;10.15;;;2.50;;
37997;SDS011;24079;51.824;4.682;2023-02-26T17:21:02;6.75;;;1.70;;
37997;SDS011;24079;51.824;4.682;2023-02-26T17:23:30;6.00;;;1.55;;
37997;SDS011;24079;51.824;4.682;2023-02-26T17:25:58;8.32;;;2.22;;
37997;SDS011;24079;51.824;4.682;2023-02-26T17:28:28;10.07;;;2.13;;
37997;SDS011;24079;51.824;4.682;2023-02-26T17:31:00;9.50;;;2.00;;
37997;SDS011;24079;51.824;4.682;2023-02-26T17:33:27;20.17;;;2.95;;
37997;SDS011;24079;51.824;4.682;2023-02-26T17:35:57;4.60;;;1.63;;
37997;SDS011;24079;51.824;4.682;2023-02-26T17:40:52;7.97;;;2.63;;
37997;SDS011;24079;51.824;4.682;2023-02-26T17:43:20;16.60;;;2.75;;
37997;SDS011;24079;51.824;4.682;2023-02-26T17:45:47;8.93;;;2.20;;
37997;SDS011;24079;51.824;4.682;2023-02-26T17:48:12;5.82;;;2.03;;
37997;SDS011;24079;51.824;4.682;2023-02-26T17:53:19;13.55;;;3.42;;
37997;SDS011;24079;51.824;4.682;2023-02-26T17:55:46;5.50;;;2.00;;
37997;SDS011;24079;51.824;4.682;2023-02-26T17:58:16;9.05;;;1.88;;
37997;SDS011;24079;51.824;4.682;2023-02-26T18:00:46;9.70;;;1.92;;
37997;SDS011;24079;51.824;4.682;2023-02-26T18:03:14;8.52;;;1.85;;
37997;SDS011;24079;51.824;4.682;2023-02-26T18:05:41;14.32;;;2.10;;
37997;SDS011;24079;51.824;4.682;2023-02-26T18:08:14;10.60;;;2.75;;
37997;SDS011;24079;51.824;4.682;2023-02-26T18:10:49;10.30;;;3.25;;
37997;SDS011;24079;51.824;4.682;2023-02-26T18:13:16;8.82;;;2.88;;
37997;SDS011;24079;51.824;4.682;2023-02-26T18:15:41;18.02;;;3.50;;
37997;SDS011;24079;51.824;4.682;2023-02-26T18:18:11;17.60;;;3.30;;
37997;SDS011;24079;51.824;4.682;2023-02-26T18:20:37;7.15;;;2.35;;
37997;SDS011;24079;51.824;4.682;2023-02-26T18:23:03;5.18;;;2.58;;
37997;SDS011;24079;51.824;4.682;2023-02-26T18:25:32;8.70;;;3.20;;
37997;SDS011;24079;51.824;4.682;2023-02-26T18:28:03;12.32;;;3.05;;
37997;SDS011;24079;51.824;4.682;2023-02-26T18:30:33;8.18;;;2.45;;
37997;SDS011;24079;51.824;4.682;2023-02-26T18:33:04;7.30;;;3.03;;
37997;SDS011;24079;51.824;4.682;2023-02-26T18:35:30;10.15;;;3.60;;
37997;SDS011;24079;51.824;4.682;2023-02-26T18:37:57;8.63;;;3.03;;
37997;SDS011;24079;51.824;4.682;2023-02-26T18:40:24;9.35;;;3.03;;
37997;SDS011;24079;51.824;4.682;2023-02-26T18:42:55;12.60;;;3.83;;
37997;SDS011;24079;51.824;4.682;2023-02-26T18:45:21;10.32;;;2.97;;
37997;SDS011;24079;51.824;4.682;2023-02-26T18:47:48;6.28;;;2.22;;
37997;SDS011;24079;51.824;4.682;2023-02-26T18:50:15;8.23;;;2.25;;
37997;SDS011;24079;51.824;4.682;2023-02-26T18:52:42;9.02;;;2.75;;
37997;SDS011;24079;51.824;4.682;2023-02-26T18:55:11;13.10;;;2.58;;
37997;SDS011;24079;51.824;4.682;2023-02-26T18:57:38;11.65;;;2.92;;
37997;SDS011;24079;51.824;4.682;2023-02-26T19:00:05;9.40;;;2.70;;
37997;SDS011;24079;51.824;4.682;2023-02-26T19:02:33;11.07;;;2.90;;
37997;SDS011;24079;51.824;4.682;2023-02-26T19:04:59;11.35;;;2.67;;
37997;SDS011;24079;51.824;4.682;2023-02-26T19:07:26;11.43;;;2.88;;
37997;SDS011;24079;51.824;4.682;2023-02-26T19:09:52;7.95;;;3.03;;
37997;SDS011;24079;51.824;4.682;2023-02-26T19:12:18;7.00;;;2.88;;
37997;SDS011;24079;51.824;4.682;2023-02-26T19:14:45;9.50;;;2.95;;
37997;SDS011;24079;51.824;4.682;2023-02-26T19:17:12;9.32;;;3.10;;
37997;SDS011;24079;51.824;4.682;2023-02-26T19:19:39;10.23;;;3.90;;
37997;SDS011;24079;51.824;4.682;2023-02-26T19:22:08;15.32;;;3.70;;
37997;SDS011;24079;51.824;4.682;2023-02-26T19:24:35;16.75;;;3.95;;
37997;SDS011;24079;51.824;4.682;2023-02-26T19:27:02;13.63;;;3.47;;
37997;SDS011;24079;51.824;4.682;2023-02-26T19:29:28;13.27;;;4.63;;
37997;SDS011;24079;51.824;4.682;2023-02-26T19:31:54;13.73;;;4.40;;
37997;SDS011;24079;51.824;4.682;2023-02-26T19:34:21;11.50;;;4.22;;
37997;SDS011;24079;51.824;4.682;2023-02-26T19:36:47;12.73;;;4.03;;
37997;SDS011;24079;51.824;4.682;2023-02-26T19:39:14;11.25;;;3.50;;
37997;SDS011;24079;51.824;4.682;2023-02-26T19:41:41;9.93;;;3.40;;
37997;SDS011;24079;51.824;4.682;2023-02-26T19:44:08;11.85;;;3.55;;
37997;SDS011;24079;51.824;4.682;2023-02-26T19:46:34;12.57;;;3.40;;
37997;SDS011;24079;51.824;4.682;2023-02-26T19:49:00;9.15;;;3.03;;
37997;SDS011;24079;51.824;4.682;2023-02-26T19:51:26;11.98;;;3.97;;
37997;SDS011;24079;51.824;4.682;2023-02-26T19:53:52;7.60;;;2.55;;
37997;SDS011;24079;51.824;4.682;2023-02-26T19:56:18;11.70;;;3.40;;
37997;SDS011;24079;51.824;4.682;2023-02-26T19:58:44;6.95;;;2.88;;
37997;SDS011;24079;51.824;4.682;2023-02-26T20:01:10;8.98;;;3.45;;
37997;SDS011;24079;51.824;4.682;2023-02-26T20:03:36;12.40;;;3.83;;
37997;SDS011;24079;51.824;4.682;2023-02-26T20:06:02;14.93;;;4.72;;
37997;SDS011;24079;51.824;4.682;2023-02-26T20:08:29;10.27;;;4.15;;
37997;SDS011;24079;51.824;4.682;2023-02-26T20:10:56;9.45;;;4.00;;
37997;SDS011;24079;51.824;4.682;2023-02-26T20:13:23;11.77;;;4.18;;
37997;SDS011;24079;51.824;4.682;2023-02-26T20:15:54;11.50;;;4.68;;
37997;SDS011;24079;51.824;4.682;2023-02-26T20:18:24;13.55;;;4.03;;
37997;SDS011;24079;51.824;4.682;2023-02-26T20:20:54;10.77;;;4.00;;
37997;SDS011;24079;51.824;4.682;2023-02-26T20:23:21;10.70;;;3.95;;
37997;SDS011;24079;51.824;4.682;2023-02-26T20:25:47;8.90;;;3.13;;
37997;SDS011;24079;51.824;4.682;2023-02-26T20:28:15;12.43;;;3.65;;
37997;SDS011;24079;51.824;4.682;2023-02-26T20:30:41;8.98;;;3.55;;
37997;SDS011;24079;51.824;4.682;2023-02-26T20:33:07;12.55;;;4.40;;
37997;SDS011;24079;51.824;4.682;2023-02-26T20:35:32;16.48;;;4.88;;
37997;SDS011;24079;51.824;4.682;2023-02-26T20:37:58;16.95;;;4.78;;
37997;SDS011;24079;51.824;4.682;2023-02-26T20:40:24;16.77;;;4.95;;
37997;SDS011;24079;51.824;4.682;2023-02-26T20:42:49;18.48;;;5.05;;
37997;SDS011;24079;51.824;4.682;2023-02-26T20:45:15;15.20;;;5.50;;
37997;SDS011;24079;51.824;4.682;2023-02-26T20:47:42;15.75;;;5.55;;
37997;SDS011;24079;51.824;4.682;2023-02-26T20:50:08;17.05;;;5.35;;
37997;SDS011;24079;51.824;4.682;2023-02-26T20:52:35;11.95;;;4.90;;
37997;SDS011;24079;51.824;4.682;2023-02-26T20:55:01;15.32;;;3.95;;
37997;SDS011;24079;51.824;4.682;2023-02-26T20:57:28;17.65;;;6.07;;
37997;SDS011;24079;51.824;4.682;2023-02-26T20:59:57;13.60;;;6.00;;
37997;SDS011;24079;51.824;4.682;2023-02-26T21:02:23;15.00;;;5.00;;
37997;SDS011;24079;51.824;4.682;2023-02-26T21:04:49;11.82;;;4.50;;
37997;SDS011;24079;51.824;4.682;2023-02-26T21:07:15;12.25;;;3.88;;
37997;SDS011;24079;51.824;4.682;2023-02-26T21:09:48;11.70;;;3.28;;
37997;SDS011;24079;51.824;4.682;2023-02-26T21:12:16;8.77;;;3.78;;
37997;SDS011;24079;51.824;4.682;2023-02-26T21:14:43;8.18;;;3.33;;
37997;SDS011;24079;51.824;4.682;2023-02-26T21:17:09;6.97;;;2.97;;
37997;SDS011;24079;51.824;4.682;2023-02-26T21:19:35;8.38;;;3.28;;
37997;SDS011;24079;51.824;4.682;2023-02-26T21:22:01;12.45;;;3.30;;
37997;SDS011;24079;51.824;4.682;2023-02-26T21:24:28;11.10;;;3.75;;
37997;SDS011;24079;51.824;4.682;2023-02-26T21:26:54;9.20;;;3.90;;
37997;SDS011;24079;51.824;4.682;2023-02-26T21:29:21;12.15;;;3.42;;
37997;SDS011;24079;51.824;4.682;2023-02-26T21:31:47;10.65;;;4.10;;
37997;SDS011;24079;51.824;4.682;2023-02-26T21:34:33;19.15;;;4.40;;
37997;SDS011;24079;51.824;4.682;2023-02-26T21:37:03;15.75;;;3.95;;
37997;SDS011;24079;51.824;4.682;2023-02-26T21:39:31;10.90;;;4.43;;
37997;SDS011;24079;51.824;4.682;2023-02-26T21:41:57;14.93;;;4.30;;
37997;SDS011;24079;51.824;4.682;2023-02-26T21:44:27;11.52;;;3.97;;
37997;SDS011;24079;51.824;4.682;2023-02-26T21:46:54;11.20;;;3.88;;
37997;SDS011;24079;51.824;4.682;2023-02-26T21:49:24;13.30;;;3.85;;
37997;SDS011;24079;51.824;4.682;2023-02-26T21:51:52;9.50;;;3.03;;
37997;SDS011;24079;51.824;4.682;2023-02-26T21:54:18;13.30;;;3.55;;
37997;SDS011;24079;51.824;4.682;2023-02-26T21:56:44;11.55;;;3.00;;
37997;SDS011;24079;51.824;4.682;2023-02-26T21:59:10;8.95;;;3.28;;
37997;SDS011;24079;51.824;4.682;2023-02-26T22:01:36;13.38;;;4.18;;
37997;SDS011;24079;51.824;4.682;2023-02-26T22:04:03;11.32;;;4.75;;
37997;SDS011;24079;51.824;4.682;2023-02-26T22:06:29;15.50;;;4.88;;
37997;SDS011;24079;51.824;4.682;2023-02-26T22:08:55;22.73;;;5.18;;
37997;SDS011;24079;51.824;4.682;2023-02-26T22:11:21;16.42;;;5.10;;
37997;SDS011;24079;51.824;4.682;2023-02-26T22:13:47;13.25;;;3.70;;
37997;SDS011;24079;51.824;4.682;2023-02-26T22:16:14;13.88;;;4.90;;
37997;SDS011;24079;51.824;4.682;2023-02-26T22:18:40;20.83;;;5.47;;
37997;SDS011;24079;51.824;4.682;2023-02-26T22:21:06;15.18;;;5.18;;
37997;SDS011;24079;51.824;4.682;2023-02-26T22:23:32;22.30;;;6.38;;
37997;SDS011;24079;51.824;4.682;2023-02-26T22:25:59;17.10;;;5.75;;
37997;SDS011;24079;51.824;4.682;2023-02-26T22:28:26;17.52;;;5.38;;
37997;SDS011;24079;51.824;4.682;2023-02-26T22:30:52;10.48;;;3.83;;
37997;SDS011;24079;51.824;4.682;2023-02-26T22:33:21;9.38;;;3.38;;
37997;SDS011;24079;51.824;4.682;2023-02-26T22:35:47;13.10;;;2.72;;
37997;SDS011;24079;51.824;4.682;2023-02-26T22:38:14;11.07;;;3.28;;
37997;SDS011;24079;51.824;4.682;2023-02-26T22:40:40;9.35;;;2.60;;
37997;SDS011;24079;51.824;4.682;2023-02-26T22:43:06;12.98;;;4.00;;
37997;SDS011;24079;51.824;4.682;2023-02-26T22:45:33;12.25;;;3.08;;
37997;SDS011;24079;51.824;4.682;2023-02-26T22:47:59;9.75;;;2.90;;
37997;SDS011;24079;51.824;4.682;2023-02-26T22:50:24;13.90;;;4.57;;
37997;SDS011;24079;51.824;4.682;2023-02-26T22:52:50;12.68;;;3.72;;
37997;SDS011;24079;51.824;4.682;2023-02-26T22:55:16;9.52;;;3.72;;
37997;SDS011;24079;51.824;4.682;2023-02-26T22:57:41;8.80;;;3.05;;
37997;SDS011;24079;51.824;4.682;2023-02-26T23:00:09;12.75;;;3.35;;
37997;SDS011;24079;51.824;4.682;2023-02-26T23:02:38;11.07;;;2.80;;
37997;SDS011;24079;51.824;4.682;2023-02-26T23:05:05;7.10;;;2.53;;
37997;SDS011;24079;51.824;4.682;2023-02-26T23:07:34;7.43;;;2.50;;
37997;SDS011;24079;51.824;4.682;2023-02-26T23:10:00;10.77;;;2.22;;
37997;SDS011;24079;51.824;4.682;2023-02-26T23:12:26;9.10;;;2.50;;
37997;SDS011;24079;51.824;4.682;2023-02-26T23:14:52;9.18;;;2.70;;
37997;SDS011;24079;51.824;4.682;2023-02-26T23:17:17;11.68;;;3.22;;
37997;SDS011;24079;51.824;4.682;2023-02-26T23:19:44;7.55;;;2.75;;
37997;SDS011;24079;51.824;4.682;2023-02-26T23:22:09;12.00;;;2.90;;
37997;SDS011;24079;51.824;4.682;2023-02-26T23:24:35;6.47;;;2.75;;
37997;SDS011;24079;51.824;4.682;2023-02-26T23:27:01;9.40;;;2.75;;
37997;SDS011;24079;51.824;4.682;2023-02-26T23:29:26;12.77;;;2.72;;
37997;SDS011;24079;51.824;4.682;2023-02-26T23:31:52;9.88;;;2.67;;
37997;SDS011;24079;51.824;4.682;2023-02-26T23:34:18;13.45;;;2.60;;
37997;SDS011;24079;51.824;4.682;2023-02-26T23:36:43;14.13;;;3.42;;
37997;SDS011;24079;51.824;4.682;2023-02-26T23:39:09;11.23;;;2.65;;
37997;SDS011;24079;51.824;4.682;2023-02-26T23:41:37;9.00;;;2.65;;
37997;SDS011;24079;51.824;4.682;2023-02-26T23:44:03;10.73;;;2.67;;
37997;SDS011;24079;51.824;4.682;2023-02-26T23:46:28;12.30;;;2.70;;
37997;SDS011;24079;51.824;4.682;2023-02-26T23:48:54;10.20;;;2.92;;
37997;SDS011;24079;51.824;4.682;2023-02-26T23:51:21;12.60;;;3.30;;
37997;SDS011;24079;51.824;4.682;2023-02-26T23:53:48;16.48;;;2.90;;
37997;SDS011;24079;51.824;4.682;2023-02-26T23:56:14;11.40;;;2.78;;
37997;SDS011;24079;51.824;4.682;2023-02-26T23:58:40;6.15;;;2.45;;
